Terminal Aerodrome Forecast
Issued by NWS

Home | Current Version | Previous Version | Graphics & Text | Print | Product List | Glossary On
Versions: 1 2 3 4 5 6 7 8 9 10 11 12 13 14 15 16 17 18
315
FTUS43 KBIS 171120
TAFMOT
TAF
KMOT 171120Z 1712/1812 00000KT P6SM VCSH FEW070 BKN100
     FM171500 19007KT P6SM SCT200
     FM171800 15006KT P6SM FEW200
     FM172200 17011KT P6SM VCTS SCT090CB SCT200
     FM180600 29006KT P6SM SCT200=

USA.gov is the U.S. government's official web portal to all federal, state and local government web resources and services.